Airfield :
LOGIN :

Register | Disclaimer

   EN    FR    IT 

 










Legend :    VFR   Marginal VFR   IFR   Intensive IFR   Very Intensive IFR
Visi :
Ceiling :
>= 8 km
>= 3000ft
5 to 8 km
1000 to 3000 ft
1500m to 5 km
500 to 1000 ft
800 to 1500m
200 to 500 ft
< 800m
< 200 ft
Symbols :   Thunderstorms  Fog  Heavy snow  Heavy precipitations  Wind > 20 kt
SIGMETs :     Misc.  Thunderstorms  Icing  Turbulence  Mountain Waves  Volcanic Ashes






- Airport Elevation : 53 ft
- IATA code : HAM


EDDH - Hamburg

CURRENT METAR :
  • 270750Z 24006KT 210V280 9999 FEW009 BKN012 03/01 Q1000 BECMG SCT015

EXPIRED METARs :
  • 270720Z 23008KT 210V270 9999 BKN008 BKN012 03/01 Q1000 BECMG BKN012
  • 270650Z 24007KT 210V270 9999 BKN009 03/01 Q1000 BECMG BKN012
  • 270620Z 24009KT 9999 BKN008 03/01 Q1000 NOSIG
  • 270550Z 24008KT 9999 FEW007 BKN008 03/01 Q1000 NOSIG
  • 270520Z 24007KT 9999 FEW007 BKN008 03/01 Q1001 NOSIG

TAF TAF EDDH
Valid from the 27 at 06:00 until the 28 at 12:00 UTC


270500Z 2706/2812 24008KT 9999 BKN008
BECMG 2707/2709 BKN020
BECMG 2715/2717 24003KT
TEMPO 2723/2802 2500 -SNRA BKN008
PROB30
TEMPO 2723/2801 0800 SN BKN003
BECMG 2800/2802 27009KT
PROB30
TEMPO 2802/2805 BKN012
BECMG 2808/2810 27015KT
PROB30
TEMPO 2808/2810 BKN010
TEMPO 2810/2812 27015G25KT



MET'MAP, your aeronautical weather chart ! - Copyright ORBIFLY December 2007 - Disclaimer

ORBIFLY MET'MAP TEAM :

Programming & Development : Alexandra Zaïnal
Concept & original design : Baudouin d'Aumeries
Assistance for programming : Marc-Olivier Méhu
Technical & hardware support : Manuel Goepfert

Contact : metmap@orbifly.com




SOURCES & CREDITS :

   NOAA